createdAt,value
2017-04-07T00:00:19.008Z,0
2017-04-07T00:01:32.249Z,0
2017-04-07T00:02:45.491Z,0
2017-04-07T00:03:58.735Z,0
2017-04-07T00:05:11.961Z,0
2017-04-07T00:06:25.208Z,0
2017-04-07T00:07:37.951Z,0
2017-04-07T00:08:51.200Z,0
2017-04-07T00:10:04.454Z,0
2017-04-07T00:11:17.193Z,0
2017-04-07T00:12:30.435Z,0
2017-04-07T00:13:43.674Z,0
2017-04-07T00:14:56.901Z,0
2017-04-07T00:16:09.691Z,0
2017-04-07T00:17:22.926Z,0
2017-04-07T00:18:36.187Z,0
2017-04-07T00:19:49.427Z,0
2017-04-07T00:21:02.155Z,0
2017-04-07T00:22:14.886Z,0
2017-04-07T00:23:28.137Z,0
2017-04-07T00:24:41.363Z,0
2017-04-07T00:25:54.587Z,0
2017-04-07T00:27:08.042Z,0
2017-04-07T00:28:21.296Z,0
2017-04-07T00:29:34.600Z,0
2017-04-07T00:30:47.877Z,0
2017-04-07T00:32:01.124Z,0
2017-04-07T00:33:14.374Z,0
2017-04-07T00:34:27.140Z,0
2017-04-07T00:35:39.895Z,0
2017-04-07T00:36:53.174Z,0
2017-04-07T00:38:06.444Z,0
2017-04-07T00:39:19.173Z,0
2017-04-07T00:40:32.457Z,0
2017-04-07T00:41:45.739Z,0
2017-04-07T00:42:59.020Z,0
2017-04-07T00:44:11.773Z,0
2017-04-07T00:45:24.536Z,0
2017-04-07T00:46:37.804Z,0
2017-04-07T00:47:51.040Z,0
2017-04-07T00:49:04.301Z,0
2017-04-07T00:50:17.564Z,0
2017-04-07T00:51:30.850Z,0
2017-04-07T00:52:44.121Z,0
2017-04-07T00:53:56.849Z,0
2017-04-07T00:55:10.104Z,0
2017-04-07T00:56:23.380Z,0
2017-04-07T00:57:36.614Z,0
2017-04-07T00:58:49.359Z,0
2017-04-07T01:00:02.598Z,0
2017-04-07T01:01:15.865Z,0
2017-04-07T01:02:29.121Z,0
2017-04-07T01:03:42.356Z,0
2017-04-07T01:04:55.608Z,0
2017-04-07T01:06:08.827Z,0
2017-04-07T01:07:22.038Z,0
2017-04-07T01:08:34.779Z,0
2017-04-07T01:09:48.018Z,0
2017-04-07T01:11:01.248Z,0
2017-04-07T01:12:14.519Z,0
2017-04-07T01:13:27.760Z,0
2017-04-07T01:14:41.035Z,0
2017-04-07T01:15:54.291Z,0
2017-04-07T01:17:07.080Z,0
2017-04-07T01:18:19.798Z,0
2017-04-07T01:19:33.031Z,0
2017-04-07T01:20:46.271Z,0
2017-04-07T01:21:59.555Z,0
2017-04-07T01:23:12.819Z,0
2017-04-07T01:24:26.085Z,0
2017-04-07T01:25:38.785Z,0
2017-04-07T01:26:52.073Z,0
2017-04-07T01:28:05.336Z,0
2017-04-07T01:29:18.564Z,0
2017-04-07T01:30:31.802Z,0
2017-04-07T01:31:45.069Z,0
2017-04-07T01:32:58.300Z,0
2017-04-07T01:34:11.581Z,0
2017-04-07T01:35:24.815Z,0
2017-04-07T01:36:38.054Z,0
2017-04-07T01:37:50.888Z,0
2017-04-07T01:39:04.123Z,0
2017-04-07T01:40:17.363Z,0
2017-04-07T01:41:30.586Z,0
2017-04-07T01:42:43.831Z,0
2017-04-07T01:43:57.072Z,0
2017-04-07T01:45:10.315Z,0
2017-04-07T01:46:23.572Z,0
2017-04-07T01:47:36.869Z,0
2017-04-07T01:48:50.130Z,0
2017-04-07T01:50:03.382Z,0
2017-04-07T01:51:16.116Z,0
2017-04-07T01:52:29.327Z,0
2017-04-07T01:53:42.597Z,0
2017-04-07T01:54:55.344Z,0
2017-04-07T01:56:08.635Z,0
2017-04-07T01:57:21.907Z,0
2017-04-07T01:58:35.159Z,0
2017-04-07T01:59:48.389Z,0
2017-04-07T02:01:01.631Z,0
2017-04-07T02:02:14.896Z,0
2017-04-07T02:03:28.202Z,0
2017-04-07T02:04:40.938Z,0
2017-04-07T02:05:53.673Z,0
2017-04-07T02:07:06.966Z,0
2017-04-07T02:08:20.259Z,0
2017-04-07T02:09:33.501Z,0
2017-04-07T02:10:46.232Z,0
2017-04-07T02:11:58.452Z,0
2017-04-07T02:13:11.196Z,0
2017-04-07T02:14:23.906Z,0
2017-04-07T02:15:37.161Z,0
2017-04-07T02:16:50.394Z,0
2017-04-07T02:18:03.632Z,0
2017-04-07T02:19:16.880Z,0
2017-04-07T02:20:30.160Z,0
2017-04-07T02:21:43.418Z,0
2017-04-07T02:22:56.641Z,0
2017-04-07T02:24:09.867Z,0
2017-04-07T02:25:23.171Z,0
2017-04-07T02:26:36.435Z,0
2017-04-07T02:27:49.691Z,0
2017-04-07T02:29:02.442Z,0
2017-04-07T02:30:14.661Z,0
2017-04-07T02:31:27.440Z,0
2017-04-07T02:32:40.713Z,0
2017-04-07T02:33:53.955Z,0
2017-04-07T02:35:06.711Z,0
2017-04-07T02:36:20.003Z,0
2017-04-07T02:37:33.270Z,0
2017-04-07T02:38:46.535Z,0
2017-04-07T02:39:59.853Z,0
2017-04-07T02:41:13.103Z,0
2017-04-07T02:42:26.323Z,0
2017-04-07T02:43:39.620Z,0
2017-04-07T02:44:52.840Z,0
2017-04-07T02:46:06.125Z,0
2017-04-07T02:47:19.365Z,0
2017-04-07T02:48:32.101Z,0
2017-04-07T02:49:45.362Z,0
2017-04-07T02:50:58.622Z,0
2017-04-07T02:52:11.929Z,0
2017-04-07T02:53:24.649Z,0
2017-04-07T02:54:37.890Z,0
2017-04-07T02:55:51.151Z,0
2017-04-07T02:57:03.883Z,0
2017-04-07T02:58:17.155Z,0
2017-04-07T02:59:30.432Z,0
2017-04-07T03:00:43.670Z,0
2017-04-07T03:01:56.451Z,0
2017-04-07T03:03:09.731Z,0
2017-04-07T03:04:22.994Z,0
2017-04-07T03:05:36.274Z,0
2017-04-07T03:06:49.540Z,0
2017-04-07T03:08:02.839Z,0
2017-04-07T03:09:15.077Z,0
2017-04-07T03:10:28.302Z,0
2017-04-07T03:11:41.591Z,0
2017-04-07T03:12:54.866Z,0
2017-04-07T03:14:08.147Z,0
2017-04-07T03:15:21.384Z,0
2017-04-07T03:16:34.141Z,0
2017-04-07T03:17:47.423Z,0
2017-04-07T03:19:00.689Z,0
2017-04-07T03:20:13.951Z,0
2017-04-07T03:21:26.722Z,0
2017-04-07T03:22:39.997Z,0
2017-04-07T03:23:53.241Z,0
2017-04-07T03:25:05.976Z,0
2017-04-07T03:26:19.257Z,0
2017-04-07T03:27:32.532Z,0
2017-04-07T03:28:45.293Z,0
2017-04-07T03:29:58.574Z,0
2017-04-07T03:31:11.845Z,0
2017-04-07T03:32:24.607Z,0
2017-04-07T03:33:37.854Z,0
2017-04-07T03:34:51.113Z,0
2017-04-07T03:36:04.343Z,0
2017-04-07T03:37:17.097Z,0
2017-04-07T03:38:29.852Z,0
2017-04-07T03:39:43.101Z,0
2017-04-07T03:40:56.367Z,0
2017-04-07T03:42:09.125Z,0
2017-04-07T03:43:22.375Z,0
2017-04-07T03:44:35.108Z,0
2017-04-07T03:45:48.332Z,0
2017-04-07T03:47:01.597Z,0
2017-04-07T03:48:15.011Z,0
2017-04-07T03:49:28.239Z,0
2017-04-07T03:50:41.028Z,0
2017-04-07T03:51:54.353Z,0
2017-04-07T03:53:07.627Z,0
2017-04-07T03:54:20.884Z,0
2017-04-07T03:55:34.130Z,0
2017-04-07T03:56:47.398Z,0
2017-04-07T03:58:00.651Z,0
2017-04-07T03:59:13.919Z,0
2017-04-07T04:00:27.180Z,0
2017-04-07T04:01:40.407Z,0
2017-04-07T04:02:53.665Z,0
2017-04-07T04:04:06.975Z,0
2017-04-07T04:05:20.239Z,0
2017-04-07T04:06:33.540Z,0
2017-04-07T04:07:46.776Z,0
2017-04-07T04:09:00.049Z,0
2017-04-07T04:10:13.339Z,0
2017-04-07T04:11:26.603Z,0
2017-04-07T04:12:39.341Z,0
2017-04-07T04:13:52.602Z,0
2017-04-07T04:15:05.305Z,0
2017-04-07T04:16:18.543Z,0
2017-04-07T04:17:31.774Z,0
2017-04-07T04:18:45.068Z,0
2017-04-07T04:19:58.308Z,0
2017-04-07T04:21:11.559Z,0
2017-04-07T04:22:24.826Z,0
2017-04-07T04:23:38.060Z,0
2017-04-07T04:24:51.335Z,0
2017-04-07T04:26:04.609Z,0
2017-04-07T04:27:17.858Z,0
2017-04-07T04:28:31.091Z,0
2017-04-07T04:29:44.367Z,0
2017-04-07T04:30:57.592Z,0
2017-04-07T04:32:10.841Z,0
2017-04-07T04:33:24.077Z,0
2017-04-07T04:34:37.303Z,0
2017-04-07T04:35:50.604Z,0
2017-04-07T04:37:03.328Z,0
2017-04-07T04:38:16.057Z,0
2017-04-07T04:39:28.825Z,0
2017-04-07T04:40:42.079Z,0
2017-04-07T04:41:55.326Z,0
2017-04-07T04:43:08.579Z,0
2017-04-07T04:44:21.848Z,0
2017-04-07T04:45:34.608Z,0
2017-04-07T04:46:47.821Z,0
2017-04-07T04:48:01.115Z,0
2017-04-07T04:49:14.463Z,0
2017-04-07T04:50:27.676Z,0
2017-04-07T04:51:40.907Z,0
2017-04-07T04:52:53.624Z,0
2017-04-07T04:54:06.904Z,0
2017-04-07T04:55:19.623Z,0
2017-04-07T04:56:32.867Z,0
2017-04-07T04:57:46.133Z,0
2017-04-07T04:58:59.394Z,0
2017-04-07T05:00:12.119Z,0
2017-04-07T05:01:25.368Z,0
2017-04-07T05:02:38.613Z,0
2017-04-07T05:03:51.860Z,0
2017-04-07T05:05:05.136Z,0
2017-04-07T05:06:18.373Z,0
2017-04-07T05:07:31.641Z,0
2017-04-07T05:08:44.908Z,0
2017-04-07T05:09:58.147Z,0
2017-04-07T05:11:10.869Z,0
2017-04-07T05:12:24.104Z,0
2017-04-07T05:13:36.825Z,0
2017-04-07T05:14:49.060Z,0
2017-04-07T05:16:02.291Z,0
2017-04-07T05:17:15.027Z,0
2017-04-07T05:18:28.503Z,0
2017-04-07T05:19:41.757Z,0
2017-04-07T05:20:55.042Z,0
2017-04-07T05:22:08.294Z,0
2017-04-07T05:23:21.532Z,0
2017-04-07T05:24:34.753Z,0
2017-04-07T05:25:47.998Z,0
2017-04-07T05:27:00.746Z,0
2017-04-07T05:28:13.989Z,0
2017-04-07T05:29:27.236Z,0
2017-04-07T05:30:40.519Z,0
2017-04-07T05:31:53.763Z,0
2017-04-07T05:33:06.513Z,0
2017-04-07T05:34:19.754Z,0
2017-04-07T05:35:32.986Z,0
2017-04-07T05:36:46.287Z,0
2017-04-07T05:37:59.531Z,0
2017-04-07T05:39:12.812Z,0
2017-04-07T05:40:26.055Z,0
2017-04-07T05:41:39.327Z,0
2017-04-07T05:42:52.608Z,0
2017-04-07T05:44:05.866Z,0
2017-04-07T05:45:19.121Z,0
2017-04-07T05:46:32.434Z,0
2017-04-07T05:47:45.666Z,0
2017-04-07T05:48:58.919Z,0
2017-04-07T05:50:12.232Z,0
2017-04-07T05:51:25.509Z,0
2017-04-07T05:52:38.739Z,0
2017-04-07T05:53:51.967Z,0
2017-04-07T05:55:05.225Z,0
2017-04-07T05:56:18.512Z,0
2017-04-07T05:57:31.735Z,0
2017-04-07T05:58:44.966Z,0
2017-04-07T05:59:58.188Z,0
2017-04-07T06:01:10.935Z,0
2017-04-07T06:02:24.215Z,0
2017-04-07T06:03:37.455Z,0
2017-04-07T06:04:50.703Z,0
2017-04-07T06:06:04.002Z,0
2017-04-07T06:07:17.244Z,0
2017-04-07T06:08:30.511Z,0
2017-04-07T06:09:43.727Z,0
2017-04-07T06:10:56.948Z,0
2017-04-07T06:12:09.184Z,0
2017-04-07T06:13:22.464Z,0
2017-04-07T06:14:35.737Z,0
2017-04-07T06:15:48.977Z,0
2017-04-07T06:17:02.258Z,0
2017-04-07T06:18:15.512Z,0
2017-04-07T06:19:28.777Z,0
2017-04-07T06:20:41.488Z,0
2017-04-07T06:21:54.712Z,0
2017-04-07T06:23:07.477Z,0
2017-04-07T06:24:20.727Z,0
2017-04-07T06:25:33.990Z,0
2017-04-07T06:26:46.739Z,0
2017-04-07T06:27:59.965Z,0
2017-04-07T06:29:13.240Z,0
2017-04-07T06:30:26.541Z,0
2017-04-07T06:31:39.303Z,0
2017-04-07T06:32:52.570Z,0
2017-04-07T06:34:05.807Z,0
2017-04-07T06:35:19.042Z,0
2017-04-07T06:36:32.342Z,0
2017-04-07T06:37:45.599Z,0
2017-04-07T06:38:58.365Z,0
2017-04-07T06:40:11.099Z,0
2017-04-07T06:41:24.377Z,0
2017-04-07T06:42:37.102Z,0
2017-04-07T06:43:50.366Z,0
2017-04-07T06:45:03.081Z,0
2017-04-07T06:46:15.815Z,0
2017-04-07T06:47:29.052Z,0
2017-04-07T06:48:42.311Z,0
2017-04-07T06:49:55.563Z,0
2017-04-07T06:51:08.802Z,0
2017-04-07T06:52:21.543Z,0
2017-04-07T06:53:34.823Z,0
2017-04-07T06:54:48.049Z,0
2017-04-07T06:56:01.292Z,0
2017-04-07T06:57:14.519Z,0
2017-04-07T06:58:27.715Z,0
2017-04-07T06:59:40.964Z,0
2017-04-07T07:00:54.255Z,0
2017-04-07T07:02:07.514Z,0
2017-04-07T07:03:20.774Z,0
2017-04-07T07:04:34.022Z,0
2017-04-07T07:05:46.737Z,0
2017-04-07T07:07:00.009Z,0
2017-04-07T07:08:12.767Z,0
2017-04-07T07:09:26.022Z,0
2017-04-07T07:10:39.269Z,0
2017-04-07T07:11:51.996Z,0
2017-04-07T07:13:05.240Z,0
2017-04-07T07:14:18.514Z,0
2017-04-07T07:15:31.282Z,0
2017-04-07T07:16:44.503Z,0
2017-04-07T07:17:57.738Z,0
2017-04-07T07:19:10.511Z,0
2017-04-07T07:20:23.782Z,0
2017-04-07T07:21:36.490Z,0
2017-04-07T07:22:49.748Z,0
2017-04-07T07:24:02.989Z,0
2017-04-07T07:25:16.230Z,0
2017-04-07T07:26:29.445Z,0
2017-04-07T07:27:42.681Z,0
2017-04-07T07:28:55.427Z,0
2017-04-07T07:30:08.164Z,0
2017-04-07T07:31:21.396Z,0
2017-04-07T07:32:34.109Z,0
2017-04-07T07:33:47.350Z,0
2017-04-07T07:35:00.569Z,0
2017-04-07T07:36:13.818Z,0
2017-04-07T07:37:27.078Z,0
2017-04-07T07:38:39.827Z,0
2017-04-07T07:39:53.110Z,0
2017-04-07T07:41:06.346Z,0
2017-04-07T07:42:20.111Z,0
2017-04-07T07:43:33.318Z,0
2017-04-07T07:44:45.524Z,0
2017-04-07T07:45:58.802Z,0
2017-04-07T07:47:12.031Z,0
2017-04-07T07:48:24.783Z,0
2017-04-07T07:49:37.516Z,0
2017-04-07T07:50:50.735Z,0
2017-04-07T07:52:04.008Z,0
2017-04-07T07:53:17.263Z,0
2017-04-07T07:54:30.522Z,0
2017-04-07T07:55:43.790Z,0
2017-04-07T07:56:57.051Z,0
2017-04-07T07:58:09.815Z,0
2017-04-07T07:59:23.084Z,0
2017-04-07T08:00:36.357Z,0
2017-04-07T08:01:49.633Z,0
2017-04-07T08:03:02.380Z,0
2017-04-07T08:04:15.142Z,0
2017-04-07T08:05:28.369Z,0
2017-04-07T08:06:41.099Z,0
2017-04-07T08:07:54.310Z,0
2017-04-07T08:09:07.560Z,0
2017-04-07T08:10:20.303Z,0
2017-04-07T08:11:33.597Z,0
2017-04-07T08:12:46.880Z,0
2017-04-07T08:14:00.099Z,0
2017-04-07T08:15:13.366Z,0
2017-04-07T08:16:26.621Z,0
2017-04-07T08:17:39.858Z,0
2017-04-07T08:18:53.097Z,0
2017-04-07T08:20:05.312Z,0
2017-04-07T08:21:17.525Z,0
2017-04-07T08:22:30.788Z,0
2017-04-07T08:23:44.016Z,0
2017-04-07T08:24:57.262Z,0
2017-04-07T08:26:10.015Z,0
2017-04-07T08:27:22.755Z,0
2017-04-07T08:28:35.995Z,0
2017-04-07T08:29:49.282Z,0
2017-04-07T08:31:02.516Z,0
2017-04-07T08:32:15.233Z,0
2017-04-07T08:33:27.958Z,0
2017-04-07T08:34:41.185Z,0
2017-04-07T08:35:54.425Z,0
2017-04-07T08:37:07.697Z,0
2017-04-07T08:38:20.996Z,0
2017-04-07T08:39:34.242Z,0
2017-04-07T08:40:46.985Z,0
2017-04-07T08:42:00.234Z,0
2017-04-07T08:43:13.478Z,0
2017-04-07T08:44:26.762Z,0
2017-04-07T08:45:39.510Z,0
2017-04-07T08:46:52.260Z,0
2017-04-07T08:48:05.494Z,0
2017-04-07T08:49:18.694Z,0
2017-04-07T08:50:31.967Z,0
2017-04-07T08:51:44.700Z,0
2017-04-07T08:52:57.982Z,0
2017-04-07T08:54:10.218Z,0
2017-04-07T08:55:22.945Z,0
2017-04-07T08:56:36.214Z,0
2017-04-07T08:57:49.475Z,4
2017-04-07T08:59:02.201Z,4
2017-04-07T09:00:15.438Z,4
2017-04-07T09:01:28.134Z,8
2017-04-07T09:02:41.357Z,12
2017-04-07T09:03:53.563Z,12
2017-04-07T09:05:06.837Z,20
2017-04-07T09:06:19.603Z,24
2017-04-07T09:07:32.857Z,32
2017-04-07T09:08:46.083Z,36
2017-04-07T09:09:59.326Z,40
2017-04-07T09:11:12.564Z,52
2017-04-07T09:12:25.322Z,64
2017-04-07T09:13:38.038Z,88
2017-04-07T09:14:51.267Z,100
2017-04-07T09:16:04.498Z,112
2017-04-07T09:17:17.742Z,128
2017-04-07T09:18:30.990Z,152
2017-04-07T09:19:44.246Z,176
2017-04-07T09:20:57.018Z,212
2017-04-07T09:22:10.291Z,248
2017-04-07T09:23:23.042Z,180
2017-04-07T09:24:35.756Z,280
2017-04-07T09:25:49.018Z,292
2017-04-07T09:27:02.254Z,300
2017-04-07T09:28:15.509Z,312
2017-04-07T09:29:28.776Z,324
2017-04-07T09:30:41.528Z,372
2017-04-07T09:31:54.837Z,432
2017-04-07T09:33:08.102Z,472
2017-04-07T09:34:21.360Z,524
2017-04-07T09:35:34.124Z,552
2017-04-07T09:36:47.380Z,624
2017-04-07T09:38:00.086Z,680
2017-04-07T09:39:13.301Z,692
2017-04-07T09:40:26.593Z,740
2017-04-07T09:41:39.857Z,748
2017-04-07T09:42:53.108Z,780
2017-04-07T09:44:06.350Z,836
2017-04-07T09:45:19.334Z,944
2017-04-07T09:46:32.591Z,956
2017-04-07T09:47:45.324Z,972
2017-04-07T09:48:58.087Z,1000
2017-04-07T09:50:11.351Z,1004
2017-04-07T09:51:24.622Z,992
2017-04-07T09:52:37.887Z,1036
2017-04-07T09:53:51.140Z,1124
2017-04-07T09:55:04.402Z,1284
2017-04-07T09:56:16.613Z,1396
2017-04-07T09:57:29.870Z,1480
2017-04-07T09:58:42.571Z,1568
2017-04-07T09:59:55.830Z,1784
2017-04-07T10:01:09.097Z,2040
2017-04-07T10:02:22.360Z,2296
2017-04-07T10:03:35.623Z,2356
2017-04-07T10:04:48.887Z,2532
2017-04-07T10:06:01.627Z,2740
2017-04-07T10:07:14.891Z,2900
2017-04-07T10:08:27.631Z,3188
2017-04-07T10:09:39.848Z,3468
2017-04-07T10:10:53.148Z,3840
2017-04-07T10:12:05.901Z,4184
2017-04-07T10:13:18.661Z,4332
2017-04-07T10:14:31.400Z,3772
2017-04-07T10:15:44.126Z,3248
2017-04-07T10:16:56.333Z,3204
2017-04-07T10:18:09.661Z,3508
2017-04-07T10:19:22.414Z,3572
2017-04-07T10:20:35.673Z,4096
2017-04-07T10:21:49.022Z,4308
2017-04-07T10:23:02.276Z,4820
2017-04-07T10:24:15.544Z,5188
2017-04-07T10:25:28.819Z,5260
2017-04-07T10:26:42.047Z,5880
2017-04-07T10:27:55.291Z,6740
2017-04-07T10:29:08.545Z,7072
2017-04-07T10:30:21.799Z,7440
2017-04-07T10:31:35.022Z,7900
2017-04-07T10:32:47.765Z,8488
2017-04-07T10:34:01.037Z,9604
2017-04-07T10:35:14.271Z,10684
2017-04-07T10:36:27.527Z,11308
2017-04-07T10:37:40.247Z,11364
2017-04-07T10:38:52.975Z,9904
2017-04-07T10:40:06.216Z,8184
2017-04-07T10:41:18.958Z,7512
2017-04-07T10:42:32.231Z,8412
2017-04-07T10:43:45.481Z,9936
2017-04-07T10:44:58.743Z,10204
2017-04-07T10:46:11.975Z,9128
2017-04-07T10:47:25.266Z,7744
2017-04-07T10:48:38.022Z,6404
2017-04-07T10:49:50.782Z,5320
2017-04-07T10:51:04.012Z,5156
2017-04-07T10:52:17.295Z,6356
2017-04-07T10:53:30.513Z,8760
2017-04-07T10:54:43.746Z,11340
2017-04-07T10:55:56.517Z,13000
2017-04-07T10:57:09.811Z,14116
2017-04-07T10:58:23.067Z,16432
2017-04-07T10:59:35.795Z,19296
2017-04-07T11:00:47.999Z,19072
2017-04-07T11:02:00.717Z,17632
2017-04-07T11:03:13.979Z,17504
2017-04-07T11:04:27.217Z,14628
2017-04-07T11:05:40.472Z,13232
2017-04-07T11:06:53.698Z,15516
2017-04-07T11:08:06.961Z,17132
2017-04-07T11:09:20.205Z,17280
2017-04-07T11:10:33.485Z,18496
2017-04-07T11:11:46.741Z,19936
2017-04-07T11:12:59.501Z,21760
2017-04-07T11:14:12.784Z,25088
2017-04-07T11:15:26.029Z,27776
2017-04-07T11:16:39.262Z,27168
2017-04-07T11:17:52.529Z,23040
2017-04-07T11:19:05.771Z,21568
2017-04-07T11:20:19.070Z,21472
2017-04-07T11:21:32.302Z,22176
2017-04-07T11:22:45.569Z,23008
2017-04-07T11:23:58.362Z,23552
2017-04-07T11:25:11.112Z,24384
2017-04-07T11:26:23.825Z,24256
2017-04-07T11:27:37.051Z,21664
2017-04-07T11:28:50.272Z,18688
2017-04-07T11:30:02.994Z,16968
2017-04-07T11:31:16.249Z,14700
2017-04-07T11:32:28.471Z,13352
2017-04-07T11:33:41.196Z,13732
2017-04-07T11:34:53.964Z,15400
2017-04-07T11:36:07.228Z,15204
2017-04-07T11:37:19.990Z,12636
2017-04-07T11:38:32.733Z,11904
2017-04-07T11:39:46.014Z,12504
2017-04-07T11:40:59.288Z,12596
2017-04-07T11:42:12.029Z,11800
2017-04-07T11:43:25.268Z,12244
2017-04-07T11:44:38.879Z,15696
2017-04-07T11:45:52.126Z,24096
2017-04-07T11:47:05.381Z,32288
2017-04-07T11:48:18.674Z,41600
2017-04-07T11:49:31.882Z,49504
2017-04-07T11:50:44.616Z,52480
2017-04-07T11:51:57.351Z,46944
2017-04-07T11:53:10.617Z,43328
2017-04-07T11:54:23.371Z,38496
2017-04-07T11:55:36.127Z,26528
2017-04-07T11:56:49.417Z,20128
2017-04-07T11:58:02.668Z,15948
2017-04-07T11:59:15.438Z,14044
2017-04-07T12:00:28.185Z,12344
2017-04-07T12:01:41.436Z,11724
2017-04-07T12:02:54.206Z,12184
2017-04-07T12:04:07.450Z,12984
2017-04-07T12:05:19.686Z,13088
2017-04-07T12:06:32.938Z,12872
2017-04-07T12:07:46.232Z,12220
2017-04-07T12:08:59.485Z,11548
2017-04-07T12:10:12.441Z,11344
2017-04-07T12:11:25.398Z,12204
2017-04-07T12:12:38.834Z,13732
2017-04-07T12:13:51.540Z,14664
2017-04-07T12:15:04.259Z,15012
2017-04-07T12:16:17.526Z,15084
2017-04-07T12:17:30.258Z,14668
2017-04-07T12:18:43.709Z,15160
2017-04-07T12:19:56.963Z,15868
2017-04-07T12:21:09.789Z,15892
2017-04-07T12:22:23.098Z,15644
2017-04-07T12:23:36.389Z,15532
2017-04-07T12:24:49.623Z,15456
2017-04-07T12:26:02.923Z,16000
2017-04-07T12:27:16.176Z,15360
2017-04-07T12:28:29.451Z,14932
2017-04-07T12:29:42.732Z,15504
2017-04-07T12:30:55.484Z,16428
2017-04-07T12:32:08.773Z,17428
2017-04-07T12:33:22.036Z,19712
2017-04-07T12:34:35.749Z,23392
2017-04-07T12:35:48.400Z,27648
2017-04-07T12:37:01.657Z,30240
2017-04-07T12:38:14.934Z,31584
2017-04-07T12:39:27.803Z,32960
2017-04-07T12:40:41.043Z,32224
2017-04-07T12:41:53.837Z,29056
2017-04-07T12:43:07.103Z,27008
2017-04-07T12:44:20.389Z,26688
2017-04-07T12:45:33.632Z,26688
2017-04-07T12:46:47.148Z,26240
2017-04-07T12:48:00.396Z,25696
2017-04-07T12:49:13.183Z,25248
2017-04-07T12:50:26.163Z,24512
2017-04-07T12:51:39.436Z,23424
2017-04-07T12:52:52.711Z,22112
2017-04-07T12:54:05.451Z,20864
2017-04-07T12:55:18.169Z,19168
2017-04-07T12:56:31.408Z,18112
2017-04-07T12:57:44.636Z,18432
2017-04-07T12:58:57.878Z,18176
2017-04-07T13:00:10.620Z,17380
2017-04-07T13:01:23.413Z,17360
2017-04-07T13:02:36.637Z,17584
2017-04-07T13:03:49.391Z,18528
2017-04-07T13:05:02.688Z,19712
2017-04-07T13:06:15.923Z,20288
2017-04-07T13:07:29.199Z,20384
2017-04-07T13:08:42.449Z,19776
2017-04-07T13:09:55.175Z,19872
2017-04-07T13:11:07.949Z,20928
2017-04-07T13:12:20.665Z,22112
2017-04-07T13:13:33.419Z,22080
2017-04-07T13:14:46.191Z,20896
2017-04-07T13:15:59.487Z,19296
2017-04-07T13:17:12.251Z,18496
2017-04-07T13:18:25.510Z,18208
2017-04-07T13:19:38.766Z,18304
2017-04-07T13:20:52.040Z,18944
2017-04-07T13:22:05.303Z,20480
2017-04-07T13:23:18.593Z,23488
2017-04-07T13:24:32.123Z,25792
2017-04-07T13:25:45.614Z,26624
2017-04-07T13:26:58.895Z,26528
2017-04-07T13:28:11.645Z,25856
2017-04-07T13:29:24.369Z,24672
2017-04-07T13:30:37.655Z,23552
2017-04-07T13:31:50.884Z,22336
2017-04-07T13:33:04.180Z,20032
2017-04-07T13:34:17.453Z,17808
2017-04-07T13:35:30.729Z,16936
2017-04-07T13:36:43.990Z,17148
2017-04-07T13:37:56.211Z,18496
2017-04-07T13:39:09.496Z,20864
2017-04-07T13:40:22.239Z,23072
2017-04-07T13:41:35.479Z,23712
2017-04-07T13:42:48.698Z,23072
2017-04-07T13:44:01.940Z,22080
2017-04-07T13:45:15.205Z,21088
2017-04-07T13:46:27.971Z,20896
2017-04-07T13:47:41.238Z,21376
2017-04-07T13:48:53.988Z,21824
2017-04-07T13:50:07.232Z,22208
2017-04-07T13:51:20.489Z,23424
2017-04-07T13:52:33.248Z,25056
2017-04-07T13:53:46.509Z,26144
2017-04-07T13:54:59.773Z,25568
2017-04-07T13:56:13.030Z,24736
2017-04-07T13:57:26.249Z,23808
2017-04-07T13:58:39.514Z,20352
2017-04-07T13:59:52.757Z,17120
2017-04-07T14:01:05.529Z,15052
2017-04-07T14:02:18.807Z,14832
2017-04-07T14:03:31.566Z,15896
2017-04-07T14:04:44.806Z,17128
2017-04-07T14:05:58.033Z,18080
2017-04-07T14:07:10.791Z,18400
2017-04-07T14:08:24.057Z,17584
2017-04-07T14:09:36.296Z,16712
2017-04-07T14:10:49.034Z,15996
2017-04-07T14:12:02.274Z,15420
2017-04-07T14:13:15.569Z,15120
2017-04-07T14:14:28.823Z,15200
2017-04-07T14:15:42.102Z,15108
2017-04-07T14:16:55.374Z,14540
2017-04-07T14:18:08.134Z,13944
2017-04-07T14:19:20.863Z,13972
2017-04-07T14:20:34.102Z,15004
2017-04-07T14:21:46.851Z,16980
2017-04-07T14:22:59.589Z,18848
2017-04-07T14:24:12.346Z,19936
2017-04-07T14:25:25.639Z,17588
2017-04-07T14:26:38.871Z,15724
2017-04-07T14:27:51.618Z,14988
2017-04-07T14:29:04.856Z,14192
2017-04-07T14:30:17.605Z,13060
2017-04-07T14:31:30.883Z,11556
2017-04-07T14:32:43.653Z,10688
2017-04-07T14:33:56.412Z,10316
2017-04-07T14:35:09.653Z,10080
2017-04-07T14:36:22.896Z,10036
2017-04-07T14:37:36.155Z,10148
2017-04-07T14:38:48.906Z,10748
2017-04-07T14:40:02.184Z,11724
2017-04-07T14:41:14.967Z,13620
2017-04-07T14:42:27.695Z,16656
2017-04-07T14:43:40.945Z,21280
2017-04-07T14:44:53.679Z,26016
2017-04-07T14:46:06.954Z,30336
2017-04-07T14:47:20.209Z,32768
2017-04-07T14:48:33.489Z,32192
2017-04-07T14:49:46.755Z,29888
2017-04-07T14:51:00.022Z,25728
2017-04-07T14:52:13.339Z,22688
2017-04-07T14:53:26.587Z,21824
2017-04-07T14:54:39.324Z,22720
2017-04-07T14:55:52.600Z,25056
2017-04-07T14:57:05.387Z,25376
2017-04-07T14:58:18.644Z,25440
2017-04-07T14:59:31.895Z,27840
2017-04-07T15:00:44.645Z,30560
2017-04-07T15:01:57.922Z,29824
2017-04-07T15:03:11.196Z,27296
2017-04-07T15:04:24.446Z,25888
2017-04-07T15:05:37.722Z,23136
2017-04-07T15:06:50.941Z,19776
2017-04-07T15:08:04.212Z,18368
2017-04-07T15:09:17.490Z,18656
2017-04-07T15:10:30.742Z,19392
2017-04-07T15:11:43.499Z,19296
2017-04-07T15:12:56.233Z,18400
2017-04-07T15:14:08.973Z,17808
2017-04-07T15:15:22.259Z,18848
2017-04-07T15:16:35.513Z,17812
2017-04-07T15:17:48.272Z,14348
2017-04-07T15:19:01.543Z,13528
2017-04-07T15:20:14.309Z,14912
2017-04-07T15:21:27.586Z,17732
2017-04-07T15:22:40.355Z,21216
2017-04-07T15:23:53.655Z,24064
2017-04-07T15:25:06.927Z,23520
2017-04-07T15:26:20.216Z,20256
2017-04-07T15:27:33.462Z,16788
2017-04-07T15:28:46.209Z,14760
2017-04-07T15:29:58.957Z,13864
2017-04-07T15:31:12.259Z,13680
2017-04-07T15:32:25.493Z,14548
2017-04-07T15:33:38.215Z,16668
2017-04-07T15:34:50.479Z,19072
2017-04-07T15:36:03.723Z,21600
2017-04-07T15:37:16.441Z,22496
2017-04-07T15:38:29.677Z,19392
2017-04-07T15:39:42.427Z,17180
2017-04-07T15:40:55.703Z,15384
2017-04-07T15:42:08.976Z,13884
2017-04-07T15:43:22.278Z,12968
2017-04-07T15:44:35.007Z,13136
2017-04-07T15:45:48.321Z,13476
2017-04-07T15:47:01.598Z,13952
2017-04-07T15:48:14.891Z,14688
2017-04-07T15:49:28.146Z,15616
2017-04-07T15:50:41.395Z,16872
2017-04-07T15:51:54.671Z,18528
2017-04-07T15:53:07.913Z,20192
2017-04-07T15:54:20.636Z,23552
2017-04-07T15:55:33.395Z,28096
2017-04-07T15:56:46.664Z,34432
2017-04-07T15:57:59.956Z,35488
2017-04-07T15:59:13.202Z,34688
2017-04-07T16:00:25.946Z,34016
2017-04-07T16:01:39.219Z,35872
2017-04-07T16:02:52.465Z,32192
2017-04-07T16:04:05.761Z,31008
2017-04-07T16:05:18.475Z,34016
2017-04-07T16:06:31.224Z,38016
2017-04-07T16:07:44.484Z,38400
2017-04-07T16:08:57.763Z,35456
2017-04-07T16:10:11.047Z,36224
2017-04-07T16:11:24.343Z,37792
2017-04-07T16:12:37.604Z,32832
2017-04-07T16:13:50.374Z,30368
2017-04-07T16:15:03.652Z,29440
2017-04-07T16:16:15.924Z,29312
2017-04-07T16:17:29.208Z,30944
2017-04-07T16:18:42.500Z,33952
2017-04-07T16:19:55.257Z,33632
2017-04-07T16:21:08.504Z,33056
2017-04-07T16:22:22.278Z,33536
2017-04-07T16:23:35.835Z,33600
2017-04-07T16:24:49.067Z,28000
2017-04-07T16:26:01.307Z,22880
2017-04-07T16:27:14.143Z,21536
2017-04-07T16:28:27.411Z,22816
2017-04-07T16:29:40.625Z,25248
2017-04-07T16:30:53.400Z,30016
2017-04-07T16:32:06.674Z,36512
2017-04-07T16:33:19.422Z,34368
2017-04-07T16:34:32.669Z,32032
2017-04-07T16:35:45.940Z,31136
2017-04-07T16:36:58.689Z,29760
2017-04-07T16:38:11.955Z,26816
2017-04-07T16:39:25.269Z,25376
2017-04-07T16:40:38.550Z,25344
2017-04-07T16:41:51.288Z,27008
2017-04-07T16:43:04.543Z,29120
2017-04-07T16:44:17.291Z,27680
2017-04-07T16:45:30.550Z,25152
2017-04-07T16:46:43.812Z,22688
2017-04-07T16:47:57.069Z,19776
2017-04-07T16:49:09.779Z,16996
2017-04-07T16:50:23.050Z,15896
2017-04-07T16:51:36.316Z,16068
2017-04-07T16:52:49.578Z,17416
2017-04-07T16:54:02.844Z,18816
2017-04-07T16:55:16.089Z,19776
2017-04-07T16:56:29.425Z,20352